Time;durP1;ratioP1;P1;durP2;ratioP2;P2;SDS_P1;SDS_P2;PMS_P1;PMS_P2;Temp;Humidity;BMP_temperature;BMP_pressure;BME280_temperature;BME280_humidity;BME280_pressure;Samples;Min_cycle;Max_cycle;Signal;HPM_P1;HPM_P2
2022/05/15 00:02:28;;;;;;;28.60;7.43;;;13.00;99.90;;;;;;5018164;28;20320;-92
2022/05/15 00:05:03;;;;;;;24.90;8.00;;;12.90;99.90;;;;;;5002262;28;20212;-90
2022/05/15 00:07:49;;;;;;;32.03;8.00;;;12.80;99.90;;;;;;5002296;28;20222;-90
2022/05/15 00:10:19;;;;;;;26.57;8.33;;;12.80;99.90;;;;;;4994656;28;20311;-92
2022/05/15 00:13:15;;;;;;;25.87;7.30;;;12.80;99.90;;;;;;4997587;28;20225;-91
2022/05/15 00:15:52;;;;;;;21.43;8.27;;;12.70;99.90;;;;;;5014171;28;20218;-92
2022/05/15 00:18:50;;;;;;;32.87;8.93;;;12.70;99.90;;;;;;5000096;28;20193;-91
2022/05/15 00:21:37;;;;;;;24.80;8.03;;;12.60;99.90;;;;;;5000724;28;20203;-91
2022/05/15 00:24:10;;;;;;;31.23;8.80;;;12.60;99.90;;;;;;4997023;28;20672;-91
2022/05/15 00:27:05;;;;;;;27.37;8.43;;;12.50;99.90;;;;;;4987049;28;20306;-89
2022/05/15 00:29:40;;;;;;;22.70;8.30;;;12.50;99.90;;;;;;4997291;28;20290;-91
2022/05/15 00:32:13;;;;;;;27.90;8.90;;;12.40;99.90;;;;;;4984237;28;20307;-91
2022/05/15 00:34:59;;;;;;;21.40;8.00;;;12.40;99.90;;;;;;4994557;28;20289;-90
2022/05/15 00:37:29;;;;;;;19.67;7.70;;;12.40;99.90;;;;;;5000278;28;20231;-91
2022/05/15 00:40:21;;;;;;;30.97;8.70;;;12.30;99.90;;;;;;4999072;28;20278;-90
2022/05/15 00:43:01;;;;;;;28.03;8.50;;;12.30;99.90;;;;;;4999408;28;20208;-90
2022/05/15 00:45:28;;;;;;;23.83;8.67;;;12.20;99.90;;;;;;4998937;28;20198;-91
2022/05/15 00:48:06;;;;;;;28.27;8.27;;;12.20;99.90;;;;;;4998630;28;20262;-91
2022/05/15 00:50:44;;;;;;;24.30;8.87;;;12.10;99.90;;;;;;4999911;28;20671;-91
2022/05/15 00:53:24;;;;;;;23.07;8.07;;;12.10;99.90;;;;;;4999789;28;20997;-92
2022/05/15 00:56:11;;;;;;;24.53;9.03;;;12.10;99.90;;;;;;4995636;28;20242;-92
2022/05/15 00:58:59;;;;;;;29.87;8.23;;;12.00;99.90;;;;;;4999025;28;20322;-91
2022/05/15 01:01:50;;;;;;;22.60;8.13;;;11.90;99.90;;;;;;4999701;28;20207;-90
2022/05/15 01:04:26;;;;;;;25.57;9.40;;;11.90;99.90;;;;;;4997137;28;20206;-91
2022/05/15 01:07:04;;;;;;;21.17;9.13;;;11.80;99.90;;;;;;4999729;28;20287;-91
2022/05/15 01:09:35;;;;;;;25.70;7.97;;;11.80;99.90;;;;;;5000503;28;20202;-90
2022/05/15 01:12:07;;;;;;;26.27;7.87;;;11.70;99.90;;;;;;4997010;28;20693;-92
2022/05/15 01:14:53;;;;;;;22.50;8.37;;;11.70;99.90;;;;;;5000348;28;20210;-91
2022/05/15 01:17:24;;;;;;;29.67;9.17;;;11.70;99.90;;;;;;4998799;28;20214;-90
2022/05/15 01:20:09;;;;;;;26.83;9.00;;;11.60;99.90;;;;;;4998547;28;20296;-92
2022/05/15 01:22:39;;;;;;;26.80;8.70;;;11.60;99.90;;;;;;4999006;28;20209;-91
2022/05/15 01:25:29;;;;;;;23.27;8.90;;;11.50;99.90;;;;;;5000261;28;20221;-89
2022/05/15 01:28:10;;;;;;;27.70;9.23;;;11.50;99.90;;;;;;4996376;28;20212;-90
2022/05/15 01:30:46;;;;;;;27.73;8.97;;;11.50;99.90;;;;;;4992273;28;20215;-90
2022/05/15 01:33:18;;;;;;;22.60;9.00;;;11.40;99.90;;;;;;4998236;28;20962;-91
2022/05/15 01:35:47;;;;;;;28.50;8.97;;;11.50;99.90;;;;;;4998827;28;20265;-91
2022/05/15 01:38:29;;;;;;;25.03;9.00;;;11.40;99.90;;;;;;5000409;28;20226;-90
2022/05/15 01:40:56;;;;;;;24.20;9.43;;;11.30;99.90;;;;;;5008562;28;20219;-92
2022/05/15 01:43:27;;;;;;;20.60;7.93;;;11.30;99.90;;;;;;5003632;28;20577;-89
2022/05/15 01:46:28;;;;;;;25.33;8.60;;;11.20;99.90;;;;;;4987325;28;20222;-90
2022/05/15 01:49:10;;;;;;;21.33;8.80;;;11.20;99.90;;;;;;4999360;28;20611;-90
2022/05/15 01:51:52;;;;;;;22.67;8.20;;;11.20;99.90;;;;;;4998482;28;20206;-88
2022/05/15 01:54:28;;;;;;;26.40;9.37;;;11.20;99.90;;;;;;4979535;28;20618;-91
2022/05/15 01:57:40;;;;;;;32.70;9.07;;;11.10;99.90;;;;;;4996473;28;20236;-91
2022/05/15 02:00:30;;;;;;;24.57;8.07;;;11.10;99.90;;;;;;4992310;28;20291;-91
2022/05/15 02:03:02;;;;;;;28.43;9.57;;;11.00;99.90;;;;;;5005493;28;20829;-90
2022/05/15 02:05:40;;;;;;;24.70;9.50;;;11.00;99.90;;;;;;5017802;28;20597;-91
2022/05/15 02:08:21;;;;;;;24.93;9.43;;;10.90;99.90;;;;;;5003031;28;20206;-90
2022/05/15 02:10:48;;;;;;;19.83;8.97;;;10.90;99.90;;;;;;4993390;28;20292;-90
2022/05/15 02:13:16;;;;;;;23.33;8.77;;;10.80;99.90;;;;;;4994735;28;20234;-91
2022/05/15 02:15:46;;;;;;;20.87;8.33;;;10.80;99.90;;;;;;4993107;28;20222;-90
2022/05/15 02:18:16;;;;;;;30.93;8.63;;;10.80;99.90;;;;;;4984231;28;20217;-90
2022/05/15 02:20:47;;;;;;;25.67;8.57;;;10.90;99.90;;;;;;4990929;28;20203;-91
2022/05/15 02:23:22;;;;;;;25.90;8.73;;;10.80;99.90;;;;;;4990438;28;20209;-92
2022/05/15 02:25:49;;;;;;;26.80;8.77;;;10.70;99.90;;;;;;4993407;28;20263;-91
2022/05/15 02:28:21;;;;;;;19.43;9.17;;;10.70;99.90;;;;;;4996214;28;20717;-91
2022/05/15 02:31:01;;;;;;;30.70;9.67;;;10.70;99.90;;;;;;4991009;28;20210;-92
2022/05/15 02:33:38;;;;;;;26.67;9.23;;;10.60;99.90;;;;;;4994200;28;20265;-92
2022/05/15 02:36:11;;;;;;;26.87;9.73;;;10.60;99.90;;;;;;4991764;28;20204;-93
2022/05/15 02:38:40;;;;;;;26.17;9.20;;;10.60;99.90;;;;;;4995174;28;20212;-91
2022/05/15 02:41:07;;;;;;;24.90;9.17;;;10.50;99.90;;;;;;4987514;28;20217;-92
2022/05/15 02:43:48;;;;;;;20.33;9.87;;;10.50;99.90;;;;;;4995792;28;20256;-89
2022/05/15 02:46:20;;;;;;;21.30;8.23;;;10.50;99.90;;;;;;4997752;28;20215;-92
2022/05/15 02:51:38;;;;;;;27.53;8.33;;;10.40;99.90;;;;;;5014989;28;20207;-90
2022/05/15 02:54:16;;;;;;;20.87;8.63;;;10.40;99.90;;;;;;5005812;28;20230;-90
2022/05/15 02:56:57;;;;;;;23.30;8.83;;;10.30;99.90;;;;;;4996571;28;20219;-91
2022/05/15 02:59:28;;;;;;;25.53;7.63;;;10.30;99.90;;;;;;4996430;28;20218;-90
2022/05/15 03:01:59;;;;;;;22.63;8.50;;;10.30;99.90;;;;;;4982560;28;20203;-91
2022/05/15 03:04:28;;;;;;;25.03;8.87;;;10.30;99.90;;;;;;4984383;28;20243;-93
2022/05/15 03:07:07;;;;;;;25.43;8.87;;;10.30;99.90;;;;;;4997886;28;20208;-90
2022/05/15 03:09:36;;;;;;;34.03;9.70;;;10.30;99.90;;;;;;4979928;28;20203;-92
2022/05/15 03:12:08;;;;;;;22.40;8.57;;;10.30;99.90;;;;;;4997575;28;20703;-91
2022/05/15 03:15:05;;;;;;;24.73;8.40;;;10.20;99.90;;;;;;4997562;28;20247;-91
2022/05/15 03:17:42;;;;;;;30.03;8.80;;;10.60;99.90;;;;;;4997728;28;20205;-90
2022/05/15 03:20:14;;;;;;;25.20;8.23;;;10.50;99.90;;;;;;5003847;28;20218;-93
2022/05/15 03:22:46;;;;;;;24.43;9.37;;;10.00;99.90;;;;;;4997100;28;20209;-92
2022/05/15 03:25:21;;;;;;;23.63;8.80;;;10.00;99.90;;;;;;4997833;28;20218;-91
2022/05/15 03:27:50;;;;;;;27.97;8.80;;;9.90;99.90;;;;;;4993897;28;20231;-91
2022/05/15 03:30:23;;;;;;;29.20;8.83;;;9.90;99.90;;;;;;5011340;28;20227;-91
2022/05/15 03:33:10;;;;;;;23.90;8.27;;;9.90;99.90;;;;;;5001848;28;20206;-91
2022/05/15 03:35:46;;;;;;;22.63;7.73;;;9.90;99.90;;;;;;5001801;28;20213;-92
2022/05/15 03:38:34;;;;;;;22.87;8.07;;;9.80;99.90;;;;;;5010547;28;20668;-92
2022/05/15 03:41:27;;;;;;;22.03;8.37;;;9.90;99.90;;;;;;5002355;28;20584;-92
2022/05/15 03:44:07;;;;;;;19.83;8.20;;;9.80;99.90;;;;;;5001461;28;20204;-90
2022/05/15 03:46:53;;;;;;;24.47;9.30;;;9.80;99.90;;;;;;5000629;28;20236;-91
2022/05/15 03:49:29;;;;;;;24.00;7.93;;;9.80;99.90;;;;;;4998251;28;20220;-92
2022/05/15 03:52:06;;;;;;;26.60;9.37;;;9.70;99.90;;;;;;4998561;28;20213;-90
2022/05/15 03:54:41;;;;;;;22.07;8.50;;;9.70;99.90;;;;;;4997934;28;20321;-91
2022/05/15 03:57:10;;;;;;;26.20;8.60;;;9.70;99.90;;;;;;4981833;28;20221;-91
2022/05/15 04:00:12;;;;;;;30.70;8.20;;;9.70;99.90;;;;;;4991547;28;20639;-91
2022/05/15 04:02:45;;;;;;;27.80;9.87;;;9.80;99.90;;;;;;5001114;28;20202;-91
2022/05/15 04:05:37;;;;;;;27.63;9.13;;;9.80;99.90;;;;;;5000859;28;20289;-92
2022/05/15 04:08:27;;;;;;;23.13;8.77;;;9.90;99.90;;;;;;5000204;28;20207;-91
2022/05/15 04:10:55;;;;;;;22.60;8.90;;;9.80;99.90;;;;;;5003287;28;20238;-90
2022/05/15 04:13:38;;;;;;;26.87;9.23;;;9.80;99.90;;;;;;4995106;28;20223;-91
2022/05/15 04:16:25;;;;;;;29.47;10.00;;;9.80;99.90;;;;;;5007519;28;20220;-92
2022/05/15 04:18:53;;;;;;;21.33;8.40;;;9.80;99.90;;;;;;4983301;28;20214;-92
2022/05/15 04:21:44;;;;;;;20.13;8.00;;;9.90;99.90;;;;;;5000238;28;20199;-94
2022/05/15 04:24:14;;;;;;;23.10;8.87;;;9.90;99.90;;;;;;4993145;28;20588;-90
2022/05/15 04:26:49;;;;;;;23.13;9.30;;;9.90;99.90;;;;;;4998711;28;20242;-91
2022/05/15 04:29:38;;;;;;;21.87;8.97;;;9.90;99.90;;;;;;4995608;28;20311;-91
2022/05/15 04:32:06;;;;;;;18.10;8.10;;;10.00;99.90;;;;;;5009293;28;20207;-90
2022/05/15 04:34:46;;;;;;;26.77;8.57;;;10.00;99.90;;;;;;5002023;28;20234;-91
2022/05/15 04:37:50;;;;;;;27.60;9.20;;;10.00;99.90;;;;;;5002118;28;20312;-91
2022/05/15 04:40:24;;;;;;;24.23;9.07;;;10.10;99.90;;;;;;5004858;28;20239;-92
2022/05/15 04:42:54;;;;;;;23.47;8.83;;;10.10;99.90;;;;;;5001024;28;20201;-91
2022/05/15 04:45:37;;;;;;;24.03;9.37;;;10.20;99.90;;;;;;5001496;28;20288;-91
2022/05/15 04:48:10;;;;;;;25.63;8.87;;;10.20;99.90;;;;;;5003915;28;20197;-91
2022/05/15 04:50:51;;;;;;;25.13;9.07;;;10.20;99.90;;;;;;5006494;28;20210;-91
2022/05/15 04:53:27;;;;;;;28.73;10.47;;;10.20;99.90;;;;;;5003375;28;20280;-90
2022/05/15 04:55:58;;;;;;;22.57;9.13;;;10.40;99.90;;;;;;5019479;28;20238;-91
2022/05/15 04:58:35;;;;;;;25.60;8.70;;;10.40;99.90;;;;;;5002169;28;20201;-89
2022/05/15 05:01:07;;;;;;;24.17;9.07;;;10.40;99.90;;;;;;4995399;28;20268;-92
2022/05/15 05:03:52;;;;;;;25.93;9.50;;;10.40;99.90;;;;;;5004799;28;20203;-91
2022/05/15 05:06:23;;;;;;;21.77;9.63;;;10.50;99.90;;;;;;5007254;28;20237;-91
2022/05/15 05:08:54;;;;;;;29.97;9.90;;;10.50;99.90;;;;;;5009714;28;20202;-90
2022/05/15 05:11:22;;;;;;;20.67;8.67;;;10.60;99.90;;;;;;5002044;28;20758;-93
2022/05/15 05:13:50;;;;;;;24.67;8.57;;;10.60;99.90;;;;;;5019392;28;20223;-92
2022/05/15 05:16:19;;;;;;;25.03;10.40;;;10.70;99.90;;;;;;5001583;28;20202;-91
2022/05/15 05:18:51;;;;;;;29.70;10.43;;;10.80;99.90;;;;;;5000899;28;20199;-91
2022/05/15 05:21:22;;;;;;;25.30;9.10;;;10.80;99.90;;;;;;5004014;28;20222;-91
2022/05/15 05:23:58;;;;;;;18.97;8.30;;;10.90;99.90;;;;;;5006296;28;20258;-92
2022/05/15 05:26:28;;;;;;;24.27;9.10;;;11.10;99.90;;;;;;4976898;28;20195;-91
2022/05/15 05:28:55;;;;;;;28.90;9.77;;;11.10;99.90;;;;;;5027294;28;20212;-90
2022/05/15 05:31:29;;;;;;;29.57;10.13;;;11.20;99.90;;;;;;5004973;28;20191;-91
2022/05/15 05:33:56;;;;;;;27.20;9.73;;;11.30;99.90;;;;;;5023915;28;20227;-91
2022/05/15 05:36:28;;;;;;;26.60;9.13;;;11.40;99.90;;;;;;5009706;28;20271;-91
2022/05/15 05:38:59;;;;;;;29.90;10.40;;;11.60;99.90;;;;;;5009962;28;20206;-92
2022/05/15 05:41:27;;;;;;;23.80;9.53;;;;;;;;;;4998410;28;20214;-90
2022/05/15 05:44:17;;;;;;;26.00;9.53;;;12.20;99.90;;;;;;5014901;28;20214;-91
2022/05/15 05:47:02;;;;;;;17.67;8.00;;;13.30;99.90;;;;;;4988443;28;20663;-92
2022/05/15 05:49:32;;;;;;;22.97;8.97;;;14.50;99.90;;;;;;4976778;28;20211;-93
2022/05/15 05:52:15;;;;;;;17.20;7.03;;;15.70;99.90;;;;;;4981604;28;20298;-91
2022/05/15 05:55:07;;;;;;;19.42;7.55;;;16.90;99.90;;;;;;4996142;28;20825;-93
2022/05/15 05:57:41;;;;;;;22.70;7.45;;;18.20;99.90;;;;;;4996076;28;20720;-90
2022/05/15 06:00:24;;;;;;;19.52;6.80;;;19.20;99.90;;;;;;4983082;28;20239;-91
2022/05/15 06:05:52;;;;;;;18.02;6.22;;;21.30;99.90;;;;;;4977773;28;20251;-91
2022/05/15 06:08:28;;;;;;;21.10;7.45;;;21.90;99.90;;;;;;4992852;28;20191;-91
2022/05/15 06:11:00;;;;;;;12.65;6.00;;;22.40;99.90;;;;;;5001248;28;21057;-91
2022/05/15 06:13:46;;;;;;;13.85;5.82;;;23.10;99.90;;;;;;4996178;28;20210;-91
2022/05/15 06:16:21;;;;;;;16.52;6.10;;;23.80;99.90;;;;;;4996435;28;20214;-91
2022/05/15 06:18:58;;;;;;;17.08;6.30;;;25.30;99.90;;;;;;4979301;28;20199;-92
2022/05/15 06:21:38;;;;;;;15.43;6.03;;;24.50;99.90;;;;;;5013838;28;20203;-91
2022/05/15 06:24:25;;;;;;;14.75;6.47;;;24.70;99.90;;;;;;4994927;28;20230;-92
2022/05/15 06:26:57;;;;;;;18.05;6.10;;;24.80;99.90;;;;;;4994262;28;20211;-91
2022/05/15 06:29:30;;;;;;;14.65;6.22;;;24.90;99.90;;;;;;4995663;28;20199;-92
2022/05/15 06:31:59;;;;;;;17.40;6.35;;;25.30;98.90;;;;;;4994971;28;20240;-93
2022/05/15 06:34:33;;;;;;;17.45;6.55;;;25.60;98.20;;;;;;5016612;28;20227;-93
2022/05/15 06:37:13;;;;;;;12.52;6.25;;;25.90;96.90;;;;;;4989752;28;20234;-90
2022/05/15 06:39:50;;;;;;;14.18;5.60;;;26.00;96.10;;;;;;4991091;28;20719;-89
2022/05/15 06:42:22;;;;;;;17.70;6.85;;;26.20;95.60;;;;;;4992265;28;20211;-90
2022/05/15 06:44:52;;;;;;;12.38;5.93;;;26.40;94.70;;;;;;4992306;28;20648;-92
2022/05/15 06:47:33;;;;;;;15.10;5.78;;;26.60;94.40;;;;;;4992446;28;20249;-89
2022/05/15 06:50:05;;;;;;;12.10;5.22;;;26.80;93.60;;;;;;4992460;28;20675;-90
2022/05/15 06:52:36;;;;;;;14.70;5.55;;;27.10;92.90;;;;;;4973346;28;20253;-88
2022/05/15 06:55:12;;;;;;;13.30;5.38;;;26.90;91.80;;;;;;4988739;28;20227;-89
2022/05/15 06:57:41;;;;;;;13.77;5.00;;;26.90;92.50;;;;;;4990624;28;20254;-90
2022/05/15 07:00:12;;;;;;;12.35;4.80;;;27.00;91.60;;;;;;5001855;28;20210;-89
2022/05/15 07:02:42;;;;;;;10.95;5.00;;;27.00;90.60;;;;;;4991083;28;20194;-90
2022/05/15 07:05:12;;;;;;;14.93;4.75;;;27.00;90.50;;;;;;5003800;28;20218;-89
2022/05/15 07:07:43;;;;;;;13.70;5.20;;;27.20;90.30;;;;;;4987679;28;20212;-89
2022/05/15 07:10:11;;;;;;;13.82;4.43;;;27.40;90.00;;;;;;4995816;28;20222;-90
2022/05/15 07:12:39;;;;;;;15.25;4.93;;;27.70;88.50;;;;;;4996407;28;20235;-90
2022/05/15 07:15:13;;;;;;;12.88;4.97;;;27.70;87.50;;;;;;4984604;28;20279;-89
2022/05/15 07:17:51;;;;;;;13.43;4.47;;;27.70;86.90;;;;;;4982400;28;20211;-91
2022/05/15 07:20:19;;;;;;;13.90;4.68;;;27.70;87.40;;;;;;4988802;28;20245;-89
2022/05/15 07:22:46;;;;;;;13.48;4.72;;;27.90;86.60;;;;;;4990926;28;20230;-90
2022/05/15 07:25:16;;;;;;;13.60;4.70;;;28.00;85.10;;;;;;4991237;28;20790;-92
2022/05/15 07:27:45;;;;;;;11.07;4.60;;;28.30;84.60;;;;;;4991716;28;20207;-88
2022/05/15 07:30:20;;;;;;;12.25;4.55;;;28.20;83.50;;;;;;4979890;28;20210;-89
2022/05/15 07:32:50;;;;;;;15.32;5.10;;;28.10;83.30;;;;;;4989363;28;20210;-88
2022/05/15 07:35:20;;;;;;;10.85;4.35;;;27.90;82.80;;;;;;5003676;28;20703;-89
2022/05/15 07:37:56;;;;;;;13.60;5.25;;;27.80;83.20;;;;;;4988280;28;20210;-89
2022/05/15 07:40:35;;;;;;;11.05;5.13;;;27.80;82.80;;;;;;5005430;28;20223;-91
2022/05/15 07:43:09;;;;;;;13.40;4.57;;;27.90;80.30;;;;;;4988953;28;20203;-88
2022/05/15 07:45:39;;;;;;;13.55;4.82;;;27.70;81.50;;;;;;4990548;28;20285;-87
2022/05/15 07:48:08;;;;;;;11.23;4.63;;;27.50;80.70;;;;;;4986935;28;20239;-91
2022/05/15 07:50:39;;;;;;;14.18;4.78;;;27.50;80.80;;;;;;4987966;28;20212;-89
2022/05/15 07:53:23;;;;;;;14.60;5.75;;;27.80;80.70;;;;;;4983950;28;20994;-90
2022/05/15 07:55:50;;;;;;;14.43;4.90;;;27.90;80.00;;;;;;4988670;28;20685;-89
2022/05/15 07:58:35;;;;;;;12.27;4.70;;;28.00;79.40;;;;;;4994431;28;20269;-89
2022/05/15 08:01:05;;;;;;;13.73;4.68;;;28.30;79.20;;;;;;4991495;28;20290;-87
2022/05/15 08:03:46;;;;;;;13.90;4.90;;;28.60;78.30;;;;;;4994630;28;20219;-90
2022/05/15 08:09:07;;;;;;;14.18;4.80;;;28.90;76.60;;;;;;5003427;28;20460;-90
2022/05/15 08:11:37;;;;;;;16.35;4.50;;;29.00;76.90;;;;;;5006494;28;20241;-91
2022/05/15 08:14:08;;;;;;;15.80;5.30;;;29.00;76.50;;;;;;5022369;28;20208;-89
2022/05/15 08:16:40;;;;;;;13.80;5.03;;;29.00;76.10;;;;;;5008361;28;20234;-91
2022/05/15 08:25:28;;;;;;;15.60;4.43;;;28.80;76.60;;;;;;4997268;28;20329;-91
2022/05/15 08:28:03;;;;;;;12.05;4.85;;;28.80;78.40;;;;;;5026608;28;20219;-93
2022/05/15 08:31:25;;;;;;;9.52;4.78;;;28.60;77.50;;;;;;4953644;28;20305;-92
2022/05/15 08:33:58;;;;;;;9.07;3.92;;;28.70;76.70;;;;;;4955669;29;20209;-92
2022/05/15 08:36:39;;;;;;;;;;;;;;;;;;;;;
2022/05/15 08:39:23;;;;;;;13.90;5.50;;;28.90;77.60;;;;;;4942596;29;20228;-91
2022/05/15 08:42:15;;;;;;;13.35;4.90;;;28.80;76.60;;;;;;4919581;29;20683;-92
2022/05/15 08:45:06;;;;;;;14.68;5.10;;;28.80;75.50;;;;;;4933743;29;20208;-92
2022/05/15 08:47:44;;;;;;;12.05;5.30;;;28.70;75.20;;;;;;4924720;28;20304;-92
2022/05/15 08:50:48;;;;;;;10.27;4.20;;;28.60;76.70;;;;;;4989646;28;20265;-91
2022/05/15 08:53:36;;;;;;;14.70;5.72;;;28.80;75.70;;;;;;4995064;28;20218;-92
2022/05/15 08:56:23;;;;;;;12.32;4.60;;;28.90;75.10;;;;;;5001222;28;20668;-92
2022/05/15 08:59:23;;;;;;;11.30;4.78;;;28.80;75.20;;;;;;5005862;28;20218;-90
2022/05/15 09:02:06;;;;;;;14.27;5.00;;;28.60;74.10;;;;;;5008785;28;20207;-91
2022/05/15 09:04:53;;;;;;;13.73;5.05;;;28.20;75.50;;;;;;5003461;28;20203;-89
2022/05/15 09:07:33;;;;;;;12.88;5.07;;;28.10;75.90;;;;;;5002396;28;20593;-90
2022/05/15 09:10:36;;;;;;;11.57;4.40;;;28.10;76.30;;;;;;5001637;28;20262;-91
2022/05/15 09:13:37;;;;;;;10.70;4.25;;;28.20;78.50;;;;;;4981915;28;20270;-91
2022/05/15 09:16:31;;;;;;;12.48;5.40;;;28.40;78.00;;;;;;4981942;28;20235;-90
2022/05/15 09:19:06;;;;;;;13.00;4.95;;;28.30;76.10;;;;;;4975039;28;20216;-92
2022/05/15 09:21:43;;;;;;;12.93;4.60;;;28.50;77.10;;;;;;4979246;28;20301;-87
2022/05/15 09:24:34;;;;;;;11.50;4.75;;;28.70;76.50;;;;;;4977970;28;20251;-88
2022/05/15 09:27:12;;;;;;;10.65;4.20;;;28.80;76.20;;;;;;4971763;28;20667;-85
2022/05/15 09:29:56;;;;;;;12.20;4.70;;;28.80;76.00;;;;;;4985474;28;20208;-86
2022/05/15 09:32:42;;;;;;;10.38;4.15;;;28.50;74.80;;;;;;4974678;28;20207;-87
2022/05/15 09:35:36;;;;;;;12.52;4.80;;;28.10;75.20;;;;;;4970926;28;20331;-86
2022/05/15 09:44:25;;;;;;;12.10;4.78;;;27.50;75.30;;;;;;4945258;28;20280;-87
2022/05/15 09:47:03;;;;;;;12.52;4.60;;;27.40;75.10;;;;;;4972904;28;20200;-86
2022/05/15 09:49:37;;;;;;;11.88;4.13;;;27.50;75.60;;;;;;4974772;28;20235;-87
2022/05/15 09:52:35;;;;;;;11.85;4.63;;;27.50;75.30;;;;;;4968833;28;20243;-88
2022/05/15 09:55:24;;;;;;;13.35;4.63;;;27.50;74.20;;;;;;4976082;28;20258;-87
2022/05/15 09:58:38;;;;;;;9.63;3.40;;;27.40;75.00;;;;;;4976833;28;20242;-90
2022/05/15 10:01:41;;;;;;;13.05;3.88;;;27.30;70.00;;;;;;4961949;28;20209;-88
2022/05/15 10:04:26;;;;;;;12.05;3.78;;;27.20;70.30;;;;;;4964296;28;20209;-89
2022/05/15 10:06:59;;;;;;;14.25;4.13;;;27.20;71.70;;;;;;4972717;28;20214;-88
2022/05/15 10:09:35;;;;;;;12.13;3.95;;;27.30;70.70;;;;;;4972005;28;20386;-87
2022/05/15 10:12:06;;;;;;;12.60;3.92;;;27.30;70.10;;;;;;5002262;28;20676;-86
2022/05/15 10:14:49;;;;;;;14.68;4.75;;;27.30;68.90;;;;;;5016313;28;20210;-89
2022/05/15 10:17:19;;;;;;;12.73;4.00;;;27.30;69.40;;;;;;4998228;28;20223;-87
2022/05/15 10:20:07;;;;;;;13.85;3.97;;;27.20;70.10;;;;;;4985327;28;20215;-86
2022/05/15 10:23:04;;;;;;;13.23;4.05;;;27.30;69.50;;;;;;4983038;28;20583;-89
2022/05/15 10:25:43;;;;;;;9.27;4.15;;;27.20;69.60;;;;;;4995618;28;20311;-90
2022/05/15 10:28:16;;;;;;;8.90;3.70;;;27.20;70.40;;;;;;5010418;28;20241;-86
2022/05/15 10:31:11;;;;;;;8.73;3.58;;;27.10;71.40;;;;;;5006583;28;20289;-88
2022/05/15 10:33:49;;;;;;;13.52;4.22;;;26.90;69.80;;;;;;4980587;28;20230;-88
2022/05/15 10:36:42;;;;;;;12.13;3.60;;;26.70;69.30;;;;;;4988975;28;20231;-87
2022/05/15 10:40:06;;;;;;;11.15;3.88;;;26.80;69.70;;;;;;5012448;28;20219;-88
2022/05/15 10:42:51;;;;;;;13.02;4.35;;;27.00;70.40;;;;;;4910913;29;20777;-88
2022/05/15 10:45:31;;;;;;;10.68;3.20;;;27.10;69.20;;;;;;4915093;29;20213;-89
2022/05/15 10:48:19;;;;;;;11.10;4.25;;;27.00;69.20;;;;;;4968979;28;20206;-88
2022/05/15 10:51:11;;;;;;;10.20;3.83;;;27.00;69.10;;;;;;5008037;28;20225;-87
2022/05/15 10:57:22;;;;;;;8.25;3.60;;;26.90;70.60;;;;;;5010647;28;20253;-90
2022/05/15 11:00:19;;;;;;;8.65;3.72;;;26.90;70.20;;;;;;5010233;28;20660;-90
2022/05/15 11:02:53;;;;;;;15.10;4.25;;;26.90;70.60;;;;;;4993104;28;20206;-90
2022/05/15 11:05:46;;;;;;;13.18;4.15;;;26.90;70.90;;;;;;5015741;28;20341;-90
2022/05/15 11:08:17;;;;;;;10.95;3.38;;;26.80;70.50;;;;;;4995267;28;20202;-88
2022/05/15 11:11:08;;;;;;;8.98;3.70;;;26.60;69.00;;;;;;5002415;28;20929;-87
2022/05/15 11:13:55;;;;;;;7.68;3.55;;;26.60;68.90;;;;;;4999733;28;20225;-87
2022/05/15 11:16:29;;;;;;;11.60;3.47;;;27.00;69.40;;;;;;4982386;28;20230;-86
2022/05/15 11:19:30;;;;;;;8.35;3.20;;;26.70;69.60;;;;;;5003295;28;20229;-83
2022/05/15 11:22:15;;;;;;;13.02;4.25;;;26.70;70.20;;;;;;4987626;28;20296;-88
2022/05/15 11:25:17;;;;;;;10.40;4.53;;;26.90;69.80;;;;;;4997433;28;20808;-86
2022/05/15 11:28:04;;;;;;;11.52;4.00;;;26.90;69.30;;;;;;4954565;28;20214;-86
2022/05/15 11:30:35;;;;;;;10.73;3.65;;;26.90;68.60;;;;;;5001833;28;20253;-88
2022/05/15 11:33:31;;;;;;;9.15;3.97;;;27.10;68.60;;;;;;4982277;28;20211;-88
2022/05/15 11:36:27;;;;;;;9.90;3.90;;;27.00;68.20;;;;;;4970189;28;20242;-89
2022/05/15 11:39:09;;;;;;;9.23;3.15;;;27.00;71.20;;;;;;5005614;28;20702;-89
2022/05/15 11:41:36;;;;;;;10.07;3.17;;;27.00;68.40;;;;;;5005139;28;20202;-87
2022/05/15 11:44:13;;;;;;;9.40;3.80;;;27.00;69.80;;;;;;5004220;28;20629;-88
2022/05/15 11:46:51;;;;;;;7.80;3.38;;;27.10;69.40;;;;;;4997278;28;20207;-88
2022/05/15 11:49:34;;;;;;;12.25;3.78;;;27.20;67.20;;;;;;4976641;28;20225;-87
2022/05/15 11:52:13;;;;;;;7.05;3.10;;;27.10;67.20;;;;;;5006834;28;20506;-88
2022/05/15 11:54:53;;;;;;;10.18;3.60;;;27.20;67.10;;;;;;5010563;28;20239;-87
2022/05/15 11:57:44;;;;;;;10.55;4.43;;;27.30;66.40;;;;;;4988557;28;20313;-89
2022/05/15 12:00:25;;;;;;;10.77;3.30;;;27.50;65.50;;;;;;5003100;28;20218;-88
2022/05/15 12:02:56;;;;;;;9.10;3.28;;;27.60;66.70;;;;;;4987318;28;20242;-88
2022/05/15 12:05:28;;;;;;;12.15;4.97;;;27.70;66.30;;;;;;4997212;28;20203;-88
2022/05/15 12:08:07;;;;;;;10.07;3.45;;;27.60;66.20;;;;;;5004237;28;20250;-89
2022/05/15 12:10:37;;;;;;;10.73;3.40;;;27.60;65.10;;;;;;4987126;28;20317;-88
2022/05/15 12:13:29;;;;;;;7.05;3.00;;;27.60;64.90;;;;;;4992601;28;20222;-88
2022/05/15 12:16:17;;;;;;;7.95;3.00;;;27.60;65.00;;;;;;5011661;28;20234;-87
2022/05/15 12:18:52;;;;;;;9.52;2.97;;;27.50;64.60;;;;;;4999409;28;20782;-87
2022/05/15 12:21:45;;;;;;;11.20;3.50;;;27.50;64.40;;;;;;4984878;28;20208;-87
2022/05/15 12:24:27;;;;;;;8.60;3.50;;;27.50;64.40;;;;;;4989599;28;20226;-87
2022/05/15 12:26:57;;;;;;;14.50;3.63;;;27.50;64.00;;;;;;5003373;28;20559;-89
2022/05/15 12:29:58;;;;;;;13.25;3.70;;;27.50;64.30;;;;;;4988920;28;20203;-88
2022/05/15 12:32:37;;;;;;;12.48;3.72;;;27.40;64.20;;;;;;4987876;28;20205;-86
2022/05/15 12:35:11;;;;;;;8.73;3.35;;;27.40;64.20;;;;;;5003114;28;20314;-88
2022/05/15 12:37:53;;;;;;;11.55;3.47;;;27.40;64.40;;;;;;5005684;28;20214;-86
2022/05/15 12:40:27;;;;;;;11.95;3.45;;;27.60;64.50;;;;;;4987086;28;20577;-87
2022/05/15 12:43:04;;;;;;;9.95;3.30;;;27.60;64.20;;;;;;4988808;28;20576;-86
2022/05/15 12:45:32;;;;;;;10.07;3.80;;;27.40;64.50;;;;;;4985161;28;20218;-87
2022/05/15 12:48:14;;;;;;;10.10;3.45;;;27.50;65.90;;;;;;5008305;28;20214;-87
2022/05/15 12:51:01;;;;;;;8.40;3.35;;;27.70;65.40;;;;;;4989711;28;20233;-87
2022/05/15 12:53:42;;;;;;;9.65;3.33;;;27.80;64.80;;;;;;5009219;28;20587;-92
2022/05/15 12:56:25;;;;;;;9.85;3.22;;;27.80;64.60;;;;;;4989657;28;20234;-89
2022/05/15 12:58:58;;;;;;;13.55;3.10;;;27.90;64.10;;;;;;4990983;28;20209;-86
2022/05/15 13:01:30;;;;;;;6.25;3.08;;;28.00;63.70;;;;;;4992657;28;20744;-86
2022/05/15 13:04:01;;;;;;;10.88;3.17;;;28.10;63.60;;;;;;4987434;28;20221;-88
2022/05/15 13:06:41;;;;;;;8.00;2.75;;;28.30;62.90;;;;;;5005335;28;20718;-87
2022/05/15 13:09:18;;;;;;;9.85;3.13;;;28.40;62.30;;;;;;5003382;28;20219;-86
2022/05/15 13:11:50;;;;;;;10.70;3.20;;;28.50;61.90;;;;;;5007534;28;20261;-87
2022/05/15 13:14:33;;;;;;;9.38;3.10;;;28.30;61.60;;;;;;5007615;28;20309;-86
2022/05/15 13:17:04;;;;;;;6.97;2.47;;;28.30;60.80;;;;;;4987473;28;20733;-88
2022/05/15 13:19:40;;;;;;;8.23;2.90;;;28.20;60.40;;;;;;4997828;28;20210;-86
2022/05/15 13:22:20;;;;;;;8.45;3.05;;;28.40;61.40;;;;;;5006803;28;20651;-88
2022/05/15 13:25:00;;;;;;;6.90;2.85;;;28.60;60.60;;;;;;4990416;28;20653;-87
2022/05/15 13:27:37;;;;;;;7.47;3.10;;;28.70;60.50;;;;;;4989385;28;20225;-87
2022/05/15 13:30:12;;;;;;;10.63;3.10;;;28.70;60.10;;;;;;5015181;28;20738;-86
2022/05/15 13:32:41;;;;;;;8.73;3.03;;;28.70;59.90;;;;;;5009926;28;20213;-87
2022/05/15 13:35:11;;;;;;;9.50;2.85;;;28.40;59.40;;;;;;4986772;28;20202;-89
2022/05/15 13:37:46;;;;;;;8.68;2.80;;;28.30;60.10;;;;;;5013648;28;20264;-86
2022/05/15 13:43:28;;;;;;;8.38;2.35;;;28.40;60.80;;;;;;5009538;28;20206;-87
2022/05/15 13:46:00;;;;;;;8.13;2.78;;;28.40;61.40;;;;;;5012053;28;20218;-86
2022/05/15 13:48:51;;;;;;;6.55;2.60;;;28.40;60.50;;;;;;4992542;28;20960;-88
2022/05/15 13:51:44;;;;;;;8.52;2.90;;;28.30;59.80;;;;;;5007893;28;20266;-86
2022/05/15 13:54:20;;;;;;;7.22;2.83;;;28.30;59.40;;;;;;4994694;28;20681;-85
2022/05/15 13:57:00;;;;;;;7.60;2.78;;;28.30;59.20;;;;;;5010544;28;20265;-88
2022/05/15 13:59:43;;;;;;;9.52;3.35;;;28.30;59.00;;;;;;5010510;28;20209;-86
2022/05/15 14:02:31;;;;;;;8.48;2.70;;;28.40;59.20;;;;;;4997077;28;20222;-84
2022/05/15 14:04:59;;;;;;;7.57;2.97;;;28.40;58.60;;;;;;5007746;28;20214;-86
2022/05/15 14:07:34;;;;;;;7.55;2.92;;;28.30;58.50;;;;;;5013467;28;20203;-85
2022/05/15 14:10:13;;;;;;;7.38;2.78;;;28.50;59.00;;;;;;5010418;28;20237;-85